Time;durP1;ratioP1;P1;durP2;ratioP2;P2;SDS_P1;SDS_P2;PMS_P1;PMS_P2;Temp;Humidity;BMP_temperature;BMP_pressure;BME280_temperature;BME280_humidity;BME280_pressure;Samples;Min_cycle;Max_cycle;Signal;HPM_P1;HPM_P2
2023/10/14 00:01:30;;;;;;;;;0.00;0.00;;;;;20.35;60.72;100251.31;5116776;27;45362;-71
2023/10/14 00:03:56;;;;;;;;;0.00;0.00;;;;;20.37;60.63;100254.69;5100661;27;46316;-71
2023/10/14 00:06:21;;;;;;;;;0.00;0.00;;;;;20.34;61.38;100252.28;5083471;27;45242;-71
2023/10/14 00:11:23;;;;;;;;;0.00;0.00;;;;;20.34;61.60;100282.34;5102618;27;45630;-71
2023/10/14 00:13:49;;;;;;;;;0.00;0.00;;;;;20.33;62.16;100285.97;5083491;27;48326;-70
2023/10/14 00:18:49;;;;;;;;;0.00;0.00;;;;;20.25;62.33;100285.69;5101838;27;45412;-71
2023/10/14 00:21:15;;;;;;;;;0.00;0.00;;;;;20.24;62.24;100298.13;5083205;27;45851;-72
2023/10/14 00:23:40;;;;;;;;;0.00;0.00;;;;;20.19;63.02;100302.09;5115216;27;45543;-71
2023/10/14 00:26:16;;;;;;;;;0.00;0.00;;;;;20.18;63.89;100305.72;5100333;27;45359;-71
2023/10/14 00:28:45;;;;;;;;;0.75;0.00;;;;;20.15;62.84;100311.25;5100587;27;45346;-71
2023/10/14 00:31:12;;;;;;;;;1.00;0.00;;;;;20.12;62.68;100304.38;5083809;27;45282;-72
2023/10/14 00:33:38;;;;;;;;;2.00;0.00;;;;;20.10;64.19;100312.44;5099985;27;45401;-71
2023/10/14 00:36:10;;;;;;;;;0.00;0.00;;;;;20.03;64.98;100321.81;5082959;27;45411;-71
2023/10/14 00:38:39;;;;;;;;;1.75;0.00;;;;;19.93;71.21;100331.41;5100260;27;45300;-71
2023/10/14 00:41:08;;;;;;;;;0.00;0.00;;;;;19.96;70.88;100349.78;5100481;27;45324;-71
2023/10/14 00:43:34;;;;;;;;;0.00;0.00;;;;;19.89;65.83;100343.22;5083353;27;46205;-71
2023/10/14 00:45:59;;;;;;;;;0.00;0.00;;;;;19.91;64.90;100370.53;5100268;27;45317;-71
2023/10/14 00:48:27;;;;;;;;;1.75;0.00;;;;;19.88;65.40;100373.41;5082898;27;45190;-71
2023/10/14 00:50:59;;;;;;;;;0.00;0.00;;;;;19.82;67.67;100369.38;5082395;27;45474;-71
2023/10/14 00:53:28;;;;;;;;;0.00;0.00;;;;;19.71;67.18;100370.13;5099142;27;46566;-71
2023/10/14 00:55:54;;;;;;;;;0.00;0.00;;;;;19.65;67.26;100383.81;5099871;27;45612;-71
2023/10/14 00:58:28;;;;;;;;;1.00;0.00;;;;;19.58;67.84;100382.53;5099871;27;45513;-71
2023/10/14 01:00:59;;;;;;;;;0.75;0.00;;;;;19.47;65.76;100387.78;5104801;27;45326;-71
2023/10/14 01:03:33;;;;;;;;;0.50;0.00;;;;;19.37;67.64;100400.84;5107247;27;45424;-70
2023/10/14 01:08:53;;;;;;;;;0.50;0.00;;;;;19.18;67.26;100411.88;5099961;27;45296;-71
2023/10/14 01:11:24;;;;;;;;;0.75;0.75;;;;;19.14;67.26;100410.34;5119115;27;45202;-72
2023/10/14 01:13:51;;;;;;;;;0.25;0.00;;;;;19.13;67.65;100424.59;5120594;27;47235;-71
2023/10/14 01:16:21;;;;;;;;;0.50;0.00;;;;;19.06;67.16;100425.97;5120517;27;45252;-71
2023/10/14 01:18:47;;;;;;;;;0.50;0.50;;;;;18.99;67.74;100437.94;5103517;27;45503;-71
2023/10/14 01:21:13;;;;;;;;;0.00;0.00;;;;;18.97;67.63;100443.34;5113037;27;45510;-72
2023/10/14 01:23:44;;;;;;;;;0.25;0.25;;;;;18.85;68.36;100445.00;5112314;27;47753;-70
2023/10/14 01:26:10;;;;;;;;;0.50;0.00;;;;;18.75;67.24;100446.50;5091683;27;45565;-70
2023/10/14 01:28:42;;;;;;;;;0.00;0.00;;;;;18.65;67.08;100456.88;5104525;27;45260;-70
2023/10/14 01:31:34;;;;;;;;;0.00;0.00;;;;;18.52;66.69;100461.28;5100962;27;45344;-70
2023/10/14 01:34:04;;;;;;;;;0.00;0.00;;;;;18.40;66.49;100463.78;5100711;27;46471;-71
2023/10/14 01:36:37;;;;;;;;;2.75;0.00;;;;;18.34;66.04;100472.13;5082772;27;45753;-70
2023/10/14 01:39:11;;;;;;;;;0.00;0.00;;;;;18.14;66.18;100472.53;5100889;27;45235;-71
2023/10/14 01:41:37;;;;;;;;;1.75;0.00;;;;;18.05;65.83;100476.59;5099661;27;45351;-72
2023/10/14 01:44:05;;;;;;;;;0.25;0.00;;;;;17.94;65.78;100492.31;5082370;27;47484;-71
2023/10/14 01:46:34;;;;;;;;;0.00;0.00;;;;;17.84;65.91;100494.63;5082481;27;45545;-71
2023/10/14 01:49:09;;;;;;;;;3.25;0.00;;;;;17.67;65.93;100502.75;5082182;27;45277;-72
2023/10/14 01:51:35;;;;;;;;;0.00;0.00;;;;;17.60;65.88;100505.78;5098857;27;45316;-70
2023/10/14 01:54:02;;;;;;;;;0.25;0.00;;;;;17.61;66.09;100528.63;5100280;27;45373;-71
2023/10/14 01:56:28;;;;;;;;;1.25;1.00;;;;;17.59;65.63;100549.03;5104887;27;45647;-71
2023/10/14 01:58:57;;;;;;;;;0.50;0.00;;;;;17.40;65.29;100551.06;5121078;27;45293;-71
2023/10/14 02:01:23;;;;;;;;;1.50;1.00;;;;;17.27;64.89;100558.88;5104444;27;45412;-72
2023/10/14 02:03:50;;;;;;;;;0.00;0.00;;;;;17.09;65.11;100581.94;5100773;27;46052;-72
2023/10/14 02:06:17;;;;;;;;;1.00;1.00;;;;;16.95;64.94;100579.22;5102368;27;45269;-70
2023/10/14 02:08:44;;;;;;;;;3.75;0.50;;;;;16.82;64.85;100597.50;5105963;27;45316;-70
2023/10/14 02:11:10;;;;;;;;;0.25;0.25;;;;;16.67;64.96;100618.53;5110585;27;45250;-71
2023/10/14 02:13:36;;;;;;;;;1.50;0.00;;;;;16.50;64.73;100606.25;5124405;27;45440;-71
2023/10/14 02:16:08;;;;;;;;;1.75;0.00;;;;;16.35;64.19;100614.16;5103890;27;45296;-71
2023/10/14 02:18:37;;;;;;;;;2.00;0.00;;;;;16.26;63.74;100616.34;5098608;27;45198;-71
2023/10/14 02:21:08;;;;;;;;;0.00;0.00;;;;;16.09;62.95;100625.13;5109489;27;45404;-71
2023/10/14 02:23:49;;;;;;;;;1.00;0.00;;;;;15.97;63.15;100625.78;5121773;27;45529;-70
2023/10/14 02:29:15;;;;;;;;;0.25;0.25;;;;;15.74;62.05;100625.16;5089393;27;45339;-70
2023/10/14 02:31:43;;;;;;;;;1.00;0.75;;;;;15.60;62.13;100629.38;5102325;27;45437;-71
2023/10/14 02:34:09;;;;;;;;;1.00;0.25;;;;;15.56;62.09;100631.31;5103661;27;46172;-71
2023/10/14 02:36:42;;;;;;;;;2.00;0.00;;;;;15.53;61.95;100640.25;5101365;27;60088;-72
2023/10/14 02:39:17;;;;;;;;;0.75;0.00;;;;;15.44;61.73;100630.16;5102426;27;45319;-71
2023/10/14 02:41:44;;;;;;;;;5.50;0.75;;;;;15.44;61.99;100639.81;5102216;27;45441;-70
2023/10/14 02:46:42;;;;;;;;;3.25;1.00;;;;;15.35;61.99;100634.09;5101964;27;45408;-70
2023/10/14 02:49:09;;;;;;;;;0.75;0.25;;;;;15.31;62.18;100629.88;5085841;27;45402;-70
2023/10/14 02:54:04;;;;;;;;;3.00;0.00;;;;;15.23;62.10;100641.72;5101692;27;46096;-70
2023/10/14 02:56:44;;;;;;;;;3.50;0.50;;;;;15.16;62.27;100649.09;5101987;27;45441;-71
2023/10/14 02:59:15;;;;;;;;;2.25;0.00;;;;;15.12;62.02;100656.28;5086767;27;45303;-70
2023/10/14 03:01:41;;;;;;;;;2.75;0.00;;;;;15.09;61.93;100653.78;5096852;27;45608;-71
2023/10/14 03:04:07;;;;;;;;;3.25;0.75;;;;;15.09;62.14;100663.47;5101446;27;47472;-71
2023/10/14 03:06:46;;;;;;;;;2.00;0.75;;;;;15.03;62.19;100654.06;5109371;27;45505;-71
2023/10/14 03:09:17;;;;;;;;;5.75;0.00;;;;;15.05;61.50;100669.81;5114973;27;45391;-70
2023/10/14 03:11:43;;;;;;;;;4.25;2.00;;;;;14.98;61.04;100682.44;5085331;27;45429;-71
2023/10/14 03:14:08;;;;;;;;;0.25;0.00;;;;;14.91;60.95;100697.66;5100951;27;45372;-71
2023/10/14 03:16:35;;;;;;;;;0.25;0.00;;;;;14.77;60.51;100685.13;5100484;27;56764;-71
2023/10/14 03:19:02;;;;;;;;;0.75;0.00;;;;;14.70;60.74;100691.59;5102843;27;45338;-71
2023/10/14 03:21:28;;;;;;;;;2.25;1.00;;;;;14.67;60.88;100691.72;5101272;27;45461;-69
2023/10/14 03:23:56;;;;;;;;;0.00;0.00;;;;;14.70;61.01;100703.91;5114889;27;45275;-69
2023/10/14 03:26:27;;;;;;;;;1.50;0.25;;;;;14.64;60.49;100706.78;5102630;27;45408;-69
2023/10/14 03:28:52;;;;;;;;;1.75;1.00;;;;;14.60;60.70;100714.81;5101527;27;45224;-69
2023/10/14 03:31:19;;;;;;;;;3.50;1.00;;;;;14.56;60.70;100717.66;5101425;27;45695;-70
2023/10/14 03:33:45;;;;;;;;;1.00;1.00;;;;;14.55;60.62;100721.19;5100967;27;48151;-70
2023/10/14 03:36:22;;;;;;;;;3.25;1.00;;;;;14.50;60.36;100728.44;5102298;27;45173;-70
2023/10/14 03:38:55;;;;;;;;;3.00;0.00;;;;;14.51;60.69;100731.00;5101447;27;45550;-70
2023/10/14 03:41:21;;;;;;;;;1.00;1.00;;;;;14.48;60.80;100733.75;5101126;27;45255;-70
2023/10/14 03:46:34;;;;;;;;;2.00;1.00;;;;;14.44;60.33;100738.31;5101108;27;45704;-70
2023/10/14 03:49:06;;;;;;;;;2.00;1.00;;;;;14.42;60.40;100734.88;5101401;27;45363;-70
2023/10/14 03:51:32;;;;;;;;;3.50;1.00;;;;;14.38;60.49;100741.22;5100965;27;45300;-70
2023/10/14 03:54:06;;;;;;;;;1.00;1.00;;;;;14.32;60.06;100744.09;5100856;27;45448;-70
2023/10/14 03:56:34;;;;;;;;;3.00;1.00;;;;;14.28;60.11;100745.16;5103009;27;45203;-70
2023/10/14 03:59:03;;;;;;;;;1.25;0.00;;;;;14.23;60.21;100740.06;5121918;27;45366;-70
2023/10/14 04:04:17;;;;;;;;;5.75;0.00;;;;;14.13;59.95;100743.16;5107860;27;45255;-70
2023/10/14 04:09:50;;;;;;;;;2.75;1.00;;;;;14.13;60.01;100762.47;5101894;27;45243;-70
2023/10/14 04:17:38;;;;;;;;;4.00;1.00;;;;;14.07;60.19;100770.59;5100552;27;45727;-71
2023/10/14 04:22:41;;;;;;;;;3.00;3.00;;;;;14.05;60.18;100775.91;5101600;27;45306;-71
2023/10/14 04:27:45;;;;;;;;;1.50;0.00;;;;;14.07;60.06;100788.16;5113470;27;45390;-71
2023/10/14 04:30:11;;;;;;;;;2.00;0.00;;;;;13.99;60.02;100793.75;5115488;27;45318;-71
2023/10/14 04:35:25;;;;;;;;;3.00;1.25;;;;;13.95;60.15;100803.53;5118165;27;46012;-71
2023/10/14 04:37:54;;;;;;;;;1.25;1.25;;;;;13.95;60.07;100806.16;5120851;27;45727;-71
2023/10/14 04:43:02;;;;;;;;;2.00;1.00;;;;;13.89;59.94;100795.03;5100194;27;45549;-71
2023/10/14 04:45:33;;;;;;;;;1.00;1.00;;;;;13.85;59.58;100797.78;5107214;27;48210;-71
2023/10/14 04:47:59;;;;;;;;;5.25;2.25;;;;;13.79;59.69;100800.66;5120743;27;45323;-71
2023/10/14 04:50:26;;;;;;;;;2.00;1.00;;;;;13.80;59.60;100807.63;5121873;27;45286;-70
2023/10/14 04:52:52;;;;;;;;;7.25;1.00;;;;;13.79;59.67;100821.69;5103350;27;45570;-70
2023/10/14 04:58:08;;;;;;;;;1.00;1.00;;;;;13.69;59.50;100812.44;5105370;27;45516;-70
2023/10/14 05:00:41;;;;;;;;;4.50;1.00;;;;;13.67;59.59;100822.19;5087757;27;45446;-71
2023/10/14 05:03:09;;;;;;;;;2.00;0.50;;;;;13.70;59.81;100831.72;5101390;27;45270;-71
2023/10/14 05:05:37;;;;;;;;;0.50;0.50;;;;;13.70;59.98;100829.94;5099455;27;47185;-71
2023/10/14 05:08:05;;;;;;;;;2.50;1.00;;;;;13.71;59.94;100829.03;5099557;27;45880;-70
2023/10/14 05:10:30;;;;;;;;;1.00;0.00;;;;;13.65;59.95;100819.59;5106944;27;45330;-71
2023/10/14 05:12:56;;;;;;;;;2.75;0.50;;;;;13.70;60.15;100824.66;5099441;27;45394;-71
2023/10/14 05:15:25;;;;;;;;;1.75;0.00;;;;;13.63;60.03;100821.44;5082504;27;47044;-71
2023/10/14 05:17:52;;;;;;;;;2.25;0.00;;;;;13.63;59.81;100818.81;5099705;27;45652;-70
2023/10/14 05:20:27;;;;;;;;;2.00;0.50;;;;;13.64;59.72;100835.44;5082708;27;45339;-70
2023/10/14 05:22:52;;;;;;;;;2.50;0.50;;;;;13.61;59.60;100836.38;5108017;27;45464;-70
2023/10/14 05:25:27;;;;;;;;;2.75;1.00;;;;;13.61;60.04;100830.28;5102644;27;46996;-71
2023/10/14 05:27:55;;;;;;;;;3.25;1.00;;;;;13.59;60.08;100835.59;5111002;27;45906;-71
2023/10/14 05:30:22;;;;;;;;;1.25;1.25;;;;;13.60;60.11;100839.09;5082809;27;45384;-71
2023/10/14 05:32:48;;;;;;;;;2.25;1.75;;;;;13.62;59.97;100848.63;5099470;27;45533;-71
2023/10/14 05:35:14;;;;;;;;;2.50;0.00;;;;;13.57;59.85;100840.06;5099003;27;46626;-70
2023/10/14 05:37:41;;;;;;;;;4.00;1.00;;;;;13.58;60.27;100852.31;5081986;27;45263;-70
2023/10/14 05:40:13;;;;;;;;;1.00;0.00;;;;;13.56;59.85;100853.25;5102954;27;45330;-70
2023/10/14 05:42:43;;;;;;;;;2.00;0.25;;;;;13.58;59.94;100864.56;5103134;27;45587;-71
2023/10/14 05:45:11;;;;;;;;;2.25;1.00;;;;;13.58;59.63;100872.47;5102865;27;46336;-70
2023/10/14 05:47:36;;;;;;;;;2.75;1.00;;;;;13.59;59.91;100875.03;5102871;27;45979;-70
2023/10/14 05:50:06;;;;;;;;;1.00;1.00;;;;;13.54;59.90;100876.13;5085751;27;45400;-71
2023/10/14 05:52:32;;;;;;;;;2.50;1.00;;;;;13.53;59.65;100880.53;5085720;27;45581;-71
2023/10/14 05:55:00;;;;;;;;;1.00;0.75;;;;;13.45;59.80;100865.03;5102442;27;47127;-71
2023/10/14 05:57:29;;;;;;;;;28.00;20.00;;;;;13.55;60.33;100883.97;5102709;27;45897;-70
2023/10/14 05:59:57;;;;;;;;;3.25;1.00;;;;;13.62;60.24;100892.50;5104095;27;45428;-70
2023/10/14 06:02:22;;;;;;;;;2.25;0.50;;;;;13.67;60.28;100899.28;5108608;27;45468;-71
2023/10/14 06:04:50;;;;;;;;;1.00;0.00;;;;;13.68;60.05;100906.25;5102091;27;45840;-70
2023/10/14 06:07:18;;;;;;;;;2.00;0.00;;;;;13.68;60.57;100902.75;5102702;27;45756;-70
2023/10/14 06:09:46;;;;;;;;;4.00;1.50;;;;;13.74;60.07;100902.56;5114301;27;45258;-71
2023/10/14 06:12:16;;;;;;;;;1.00;1.00;;;;;13.77;60.50;100906.81;5106240;27;45499;-70
2023/10/14 06:14:46;;;;;;;;;1.50;1.00;;;;;13.81;60.17;100918.94;5115311;27;46391;-70
2023/10/14 06:17:12;;;;;;;;;8.50;7.25;;;;;13.85;60.09;100931.94;5102322;27;45338;-70
2023/10/14 06:19:38;;;;;;;;;4.50;3.00;;;;;13.88;60.07;100932.72;5102547;27;45555;-70
2023/10/14 06:22:04;;;;;;;;;6.00;3.00;;;;;13.88;60.01;100932.72;5086354;27;45548;-70
2023/10/14 06:24:29;;;;;;;;;5.00;2.50;;;;;13.86;59.96;100935.41;5122903;27;45471;-70
2023/10/14 06:27:08;;;;;;;;;2.50;2.50;;;;;13.87;59.87;100947.66;5123212;27;56455;-71
2023/10/14 06:29:36;;;;;;;;;4.00;2.00;;;;;13.84;60.08;100942.50;5123310;27;45477;-71
2023/10/14 06:32:03;;;;;;;;;2.00;1.50;;;;;13.84;59.83;100953.88;5122641;27;45565;-71
2023/10/14 06:34:32;;;;;;;;;3.50;2.00;;;;;13.80;59.64;100952.28;5105445;27;47419;-71
2023/10/14 06:37:01;;;;;;;;;8.00;3.50;;;;;13.80;59.77;100956.69;5122599;27;45674;-71
2023/10/14 06:39:27;;;;;;;;;5.75;3.00;;;;;13.81;60.03;100968.91;5122824;27;45250;-70
2023/10/14 06:41:53;;;;;;;;;2.75;2.50;;;;;13.84;59.87;100964.41;5091661;27;45531;-70
2023/10/14 06:44:21;;;;;;;;;3.50;1.00;;;;;13.87;59.97;100973.97;5105224;27;47644;-71
2023/10/14 06:46:47;;;;;;;;;2.50;2.00;;;;;13.86;59.67;100972.25;5100712;27;45873;-70
2023/10/14 06:49:16;;;;;;;;;4.50;2.00;;;;;13.87;59.33;100979.22;5102489;27;52347;-70
2023/10/14 06:51:42;;;;;;;;;2.75;1.00;;;;;13.88;59.55;100983.56;5101806;27;45497;-70
2023/10/14 06:54:09;;;;;;;;;2.75;1.00;;;;;13.85;59.21;100987.19;5101406;27;47534;-71
2023/10/14 06:56:35;;;;;;;;;2.75;2.75;;;;;13.82;59.00;100987.28;5107144;27;45739;-70
2023/10/14 06:59:01;;;;;;;;;4.00;1.50;;;;;13.83;58.80;100990.78;5139927;27;45372;-70
2023/10/14 07:01:28;;;;;;;;;3.75;2.00;;;;;13.86;58.96;100996.81;5104181;27;64187;-70
2023/10/14 07:03:54;;;;;;;;;4.00;1.25;;;;;13.90;58.89;101000.19;5122108;27;45497;-70
2023/10/14 07:06:21;;;;;;;;;3.25;1.50;;;;;13.98;58.37;101005.16;5104646;27;45287;-70
2023/10/14 07:08:49;;;;;;;;;2.50;2.00;;;;;13.98;58.24;101002.50;5101172;27;45388;-71
2023/10/14 07:11:15;;;;;;;;;4.25;3.00;;;;;14.03;58.27;101009.31;5102620;27;45375;-72
2023/10/14 07:13:42;;;;;;;;;4.50;1.75;;;;;14.03;58.11;101013.72;5067756;27;47381;-70
2023/10/14 07:16:08;;;;;;;;;2.00;1.00;;;;;14.09;58.26;101017.91;5101421;27;45438;-71
2023/10/14 07:18:36;;;;;;;;;3.00;1.00;;;;;14.12;57.86;101030.97;5080846;27;45252;-71
2023/10/14 07:21:12;;;;;;;;;3.50;1.00;;;;;14.12;57.96;101031.81;5104807;27;45696;-71
2023/10/14 07:23:38;;;;;;;;;4.50;3.75;;;;;14.15;58.01;101034.34;5120310;27;45638;-70
2023/10/14 07:26:11;;;;;;;;;2.00;2.00;;;;;14.21;57.35;101038.50;5101210;27;45446;-71
2023/10/14 07:28:48;;;;;;;;;1.75;1.75;;;;;14.27;56.89;101048.81;5099739;27;45357;-70
2023/10/14 07:31:13;;;;;;;;;1.00;1.00;;;;;14.24;57.19;101051.56;5111603;27;45868;-70
2023/10/14 07:33:40;;;;;;;;;3.00;1.00;;;;;14.26;56.68;101039.19;5101020;27;45509;-71
2023/10/14 07:36:06;;;;;;;;;4.00;1.00;;;;;14.31;56.93;101053.03;5084072;27;45687;-70
2023/10/14 07:38:35;;;;;;;;;1.50;1.00;;;;;14.26;56.69;101036.56;5101572;27;45386;-71
2023/10/14 07:41:01;;;;;;;;;3.75;1.75;;;;;14.40;56.65;101062.38;5123161;27;45312;-70
2023/10/14 07:43:29;;;;;;;;;3.00;2.00;;;;;14.46;56.33;101061.28;5121335;27;46202;-70
2023/10/14 07:45:58;;;;;;;;;2.00;1.00;;;;;14.53;56.65;101075.94;5122874;27;45364;-71
2023/10/14 07:48:24;;;;;;;;;1.75;1.00;;;;;14.58;56.14;101069.59;5103283;27;45257;-70
2023/10/14 07:50:50;;;;;;;;;2.75;2.00;;;;;14.66;56.56;101066.69;5083515;27;45632;-70
2023/10/14 07:53:22;;;;;;;;;8.00;5.00;;;;;14.61;56.42;101044.94;5083459;27;47984;-70
2023/10/14 07:55:49;;;;;;;;;4.50;2.00;;;;;14.84;55.62;101069.50;5100943;27;45841;-69
2023/10/14 07:58:31;;;;;;;;;3.50;2.50;;;;;14.88;56.16;101066.69;5100853;27;45304;-70
2023/10/14 08:00:56;;;;;;;;;5.00;2.00;;;;;14.99;55.52;101069.75;5104500;27;45394;-70
2023/10/14 08:03:22;;;;;;;;;3.25;1.00;;;;;15.09;54.95;101077.31;5083422;27;47042;-70
2023/10/14 08:05:52;;;;;;;;;2.25;1.00;;;;;15.10;55.35;101087.78;5083423;27;45396;-70
2023/10/14 08:08:19;;;;;;;;;2.25;1.00;;;;;15.09;54.92;101087.84;5100809;27;45263;-70
2023/10/14 08:10:46;;;;;;;;;1.50;0.50;;;;;15.08;54.73;101091.38;5116551;27;45468;-70
2023/10/14 08:13:12;;;;;;;;;5.75;2.00;;;;;15.11;55.04;101092.13;5121167;27;45354;-70
2023/10/14 08:15:38;;;;;;;;;2.00;2.00;;;;;15.15;54.59;101101.63;5121326;27;45326;-70
2023/10/14 08:18:07;;;;;;;;;4.00;2.00;;;;;15.21;54.72;101097.03;5112266;27;45255;-70
2023/10/14 08:20:33;;;;;;;;;1.00;1.00;;;;;15.21;54.31;101097.91;5083588;27;45448;-70
2023/10/14 08:22:59;;;;;;;;;3.50;2.00;;;;;15.28;54.34;101111.66;5109674;27;45520;-70
2023/10/14 08:25:25;;;;;;;;;1.75;1.50;;;;;15.30;53.86;101112.50;5087737;27;45398;-70
2023/10/14 08:27:55;;;;;;;;;3.00;1.50;;;;;15.34;54.11;101108.78;5100315;27;45414;-70
2023/10/14 08:30:24;;;;;;;;;1.00;0.75;;;;;15.34;53.66;101114.91;5100335;27;45250;-70
2023/10/14 08:32:50;;;;;;;;;4.25;2.00;;;;;15.39;53.94;101117.38;5100218;27;45472;-70
2023/10/14 08:35:15;;;;;;;;;5.50;2.00;;;;;15.39;53.98;101109.47;5100032;27;45388;-70
2023/10/14 08:37:50;;;;;;;;;0.25;0.25;;;;;15.46;53.90;101118.84;5100246;27;45431;-70
2023/10/14 08:40:20;;;;;;;;;5.50;0.75;;;;;15.51;53.82;101126.53;5118901;27;45299;-70
2023/10/14 08:42:50;;;;;;;;;1.50;1.25;;;;;15.51;53.77;101121.28;5121900;27;46463;-70
2023/10/14 08:45:21;;;;;;;;;3.00;1.50;;;;;15.49;53.79;101110.81;5100615;27;45418;-70
2023/10/14 08:47:51;;;;;;;;;3.00;2.00;;;;;15.53;54.04;101114.19;5100040;27;45508;-70
2023/10/14 08:50:19;;;;;;;;;2.25;1.00;;;;;15.60;53.58;101120.91;5099921;27;45367;-70
2023/10/14 08:52:45;;;;;;;;;6.25;0.75;;;;;15.64;53.51;101130.41;5097245;27;47426;-70
2023/10/14 08:55:13;;;;;;;;;1.75;0.50;;;;;15.62;53.52;101124.34;5103223;27;45259;-70
2023/10/14 08:57:39;;;;;;;;;1.75;1.00;;;;;15.64;53.29;101124.28;5106804;27;45364;-70
2023/10/14 09:00:05;;;;;;;;;1.75;0.00;;;;;15.72;53.04;101145.91;5100013;27;45509;-70
2023/10/14 09:02:31;;;;;;;;;3.00;0.50;;;;;15.75;52.49;101145.81;5103157;27;45493;-70
2023/10/14 09:04:59;;;;;;;;;0.50;0.25;;;;;15.86;52.69;101145.38;5082414;27;45685;-70
2023/10/14 09:07:24;;;;;;;;;1.25;0.00;;;;;15.90;52.86;101144.28;5099895;27;45244;-70
2023/10/14 09:09:53;;;;;;;;;3.00;0.50;;;;;15.91;52.68;101138.97;5111614;27;63376;-70
2023/10/14 09:12:18;;;;;;;;;2.75;0.75;;;;;16.01;52.50;101135.94;5120604;27;46532;-70
2023/10/14 09:14:44;;;;;;;;;5.75;2.50;;;;;16.06;52.87;101131.28;5102509;27;45774;-70
2023/10/14 09:17:10;;;;;;;;;1.00;0.50;;;;;16.22;52.07;101137.63;5104685;27;45264;-70
2023/10/14 09:19:43;;;;;;;;;5.00;0.25;;;;;16.41;52.18;101153.50;5099470;27;45451;-70
2023/10/14 09:22:19;;;;;;;;;4.00;2.25;;;;;16.51;51.43;101153.97;5097338;27;47105;-69
2023/10/14 09:24:45;;;;;;;;;4.50;2.75;;;;;16.59;51.51;101159.78;5120130;27;45493;-70
2023/10/14 09:27:11;;;;;;;;;4.00;3.00;;;;;16.65;51.28;101153.34;5121281;27;45438;-71
2023/10/14 09:29:36;;;;;;;;;2.25;1.00;;;;;16.78;51.09;101154.47;5120065;27;45326;-70
2023/10/14 09:32:04;;;;;;;;;3.50;0.75;;;;;16.87;51.63;101146.19;5101374;27;73117;-70
2023/10/14 09:34:30;;;;;;;;;0.75;0.75;;;;;17.02;50.92;101160.44;5099307;27;45260;-70
2023/10/14 09:36:55;;;;;;;;;4.25;1.50;;;;;17.08;50.96;101156.66;5081379;27;65993;-71
2023/10/14 09:39:24;;;;;;;;;2.00;0.50;;;;;17.09;50.74;101161.03;5081175;27;73358;-71
2023/10/14 09:41:53;;;;;;;;;4.00;3.00;;;;;17.04;50.42;101153.28;5100160;27;47965;-70
2023/10/14 09:44:20;;;;;;;;;9.00;3.75;;;;;17.07;50.18;101163.75;5119875;27;45225;-70
2023/10/14 09:46:46;;;;;;;;;1.75;1.00;;;;;17.12;49.56;101160.00;5119922;27;45320;-70
2023/10/14 09:49:13;;;;;;;;;4.25;1.50;;;;;17.20;50.05;101171.94;5119640;27;45558;-70
2023/10/14 09:51:39;;;;;;;;;7.00;6.00;;;;;17.28;49.60;101166.28;5120613;27;57634;-71
2023/10/14 09:54:05;;;;;;;;;4.50;3.00;;;;;17.39;49.80;101169.28;5119890;27;45361;-70
2023/10/14 09:56:31;;;;;;;;;2.50;1.00;;;;;17.48;48.88;101169.75;5119806;27;45330;-71
2023/10/14 09:58:56;;;;;;;;;2.50;0.75;;;;;17.62;48.25;101172.59;5101633;27;67756;-71
2023/10/14 10:01:24;;;;;;;;;2.00;0.75;;;;;17.70;49.07;101178.34;5101283;27;68147;-71
2023/10/14 10:03:58;;;;;;;;;2.25;0.75;;;;;17.75;48.54;101176.31;5136816;27;45478;-71
2023/10/14 10:06:43;;;;;;;;;1.25;1.00;;;;;17.83;48.08;101171.50;5100233;27;45481;-71
2023/10/14 10:09:29;;;;;;;;;3.00;2.00;;;;;17.88;48.79;101188.97;5104461;27;45194;-71
2023/10/14 10:11:57;;;;;;;;;0.75;0.75;;;;;17.89;48.60;101196.00;5098966;27;45731;-71
2023/10/14 10:14:25;;;;;;;;;2.25;1.00;;;;;17.88;47.97;101192.47;5098792;27;45625;-70
2023/10/14 10:16:52;;;;;;;;;3.00;1.25;;;;;17.88;48.90;101191.63;5099304;27;45374;-71
2023/10/14 10:19:17;;;;;;;;;1.75;1.25;;;;;17.91;47.98;101205.56;5098655;27;45535;-71
2023/10/14 10:22:16;;;;;;;;;1.50;1.00;;;;;17.91;48.86;101196.78;5098577;27;58648;-71
2023/10/14 10:24:44;;;;;;;;;2.25;0.25;;;;;17.93;48.69;101203.69;5093368;27;45277;-71
2023/10/14 10:27:14;;;;;;;;;1.00;1.00;;;;;17.99;48.35;101202.56;5105249;27;45354;-71
2023/10/14 10:29:51;;;;;;;;;7.00;7.00;;;;;18.02;47.60;101205.91;5085929;27;46062;-71
2023/10/14 10:32:21;;;;;;;;;3.00;3.00;;;;;17.98;48.58;101204.31;5084857;27;47200;-71
2023/10/14 10:35:05;;;;;;;;;4.75;3.00;;;;;17.99;48.08;101216.63;5103239;27;45369;-71
2023/10/14 10:37:33;;;;;;;;;8.25;3.75;;;;;17.94;48.35;101220.47;5111048;27;45339;-71
2023/10/14 10:39:58;;;;;;;;;4.75;2.00;;;;;17.89;46.94;101227.78;5139865;27;45721;-71
2023/10/14 10:42:25;;;;;;;;;10.75;4.50;;;;;17.77;47.77;101235.34;5104304;27;65011;-71
2023/10/14 10:44:50;;;;;;;;;2.25;2.25;;;;;17.64;48.66;101231.59;5105402;27;45761;-71
2023/10/14 10:47:16;;;;;;;;;3.25;2.25;;;;;17.60;48.58;101222.94;5105702;27;45299;-71
2023/10/14 10:49:58;;;;;;;;;8.25;2.00;;;;;17.58;48.90;101231.88;5121497;27;45214;-71
2023/10/14 10:52:25;;;;;;;;;9.00;3.25;;;;;17.60;49.23;101224.72;5096786;27;47013;-71
2023/10/14 10:54:53;;;;;;;;;6.50;2.50;;;;;17.57;49.22;101215.16;5117518;27;45491;-71
2023/10/14 10:57:19;;;;;;;;;7.25;5.25;;;;;17.56;49.14;101225.81;5097141;27;45352;-71
2023/10/14 10:59:46;;;;;;;;;3.00;2.50;;;;;17.54;49.31;101230.31;5103505;27;45340;-71
2023/10/14 11:02:13;;;;;;;;;4.50;2.00;;;;;17.53;49.39;101228.59;5105971;27;45368;-71
2023/10/14 11:04:39;;;;;;;;;5.75;4.00;;;;;17.56;48.89;101231.09;5084485;27;45190;-71
2023/10/14 11:07:09;;;;;;;;;4.75;2.00;;;;;17.62;48.42;101241.41;5101941;27;45186;-71
2023/10/14 11:09:39;;;;;;;;;3.75;2.00;;;;;17.67;48.93;101238.50;5112215;27;45404;-71
2023/10/14 11:12:05;;;;;;;;;5.75;3.50;;;;;17.76;48.61;101240.69;5105435;27;47127;-71
2023/10/14 11:14:30;;;;;;;;;7.25;3.75;;;;;17.80;48.37;101231.69;5104947;27;46176;-71
2023/10/14 11:16:57;;;;;;;;;3.00;2.00;;;;;17.87;48.19;101237.59;5103972;27;70744;-70
2023/10/14 11:19:26;;;;;;;;;1.00;1.00;;;;;17.82;47.51;101246.56;5104967;27;45820;-71
2023/10/14 11:21:52;;;;;;;;;3.75;2.00;;;;;17.74;47.55;101248.75;5122059;27;45374;-70
2023/10/14 11:24:18;;;;;;;;;5.00;3.00;;;;;17.70;48.03;101256.91;5122017;27;45331;-71
2023/10/14 11:26:45;;;;;;;;;3.25;2.75;;;;;17.54;47.68;101241.75;5122078;27;45583;-71
2023/10/14 11:29:11;;;;;;;;;5.50;2.75;;;;;17.36;47.85;101229.41;5121949;27;45555;-71
2023/10/14 11:31:39;;;;;;;;;3.75;3.00;;;;;17.34;47.83;101237.41;5121652;27;45423;-70
2023/10/14 11:34:05;;;;;;;;;8.75;6.00;;;;;17.35;47.40;101249.72;5121501;27;45365;-71
2023/10/14 11:36:30;;;;;;;;;6.00;3.75;;;;;17.38;47.73;101261.94;5121093;27;45356;-71
2023/10/14 11:38:58;;;;;;;;;5.00;3.75;;;;;17.24;47.74;101236.97;5103806;27;61997;-71
2023/10/14 11:41:27;;;;;;;;;8.00;2.75;;;;;17.28;47.46;101253.56;5107420;27;47112;-71
2023/10/14 11:43:53;;;;;;;;;4.00;2.00;;;;;17.24;47.84;101252.00;5101105;27;45193;-70
2023/10/14 11:46:18;;;;;;;;;3.00;3.00;;;;;17.19;47.59;101252.22;5118370;27;45288;-70
2023/10/14 11:48:45;;;;;;;;;4.50;2.75;;;;;17.22;48.63;101256.50;5100919;27;45743;-71
2023/10/14 11:51:13;;;;;;;;;1.75;1.75;;;;;17.19;48.84;101239.00;5097876;27;47238;-70
2023/10/14 11:53:46;;;;;;;;;3.00;1.75;;;;;17.21;49.88;101249.50;5138444;27;45444;-71
2023/10/14 11:56:15;;;;;;;;;2.50;2.50;;;;;17.18;49.64;101229.34;5121724;27;45492;-71
2023/10/14 11:58:41;;;;;;;;;6.25;2.00;;;;;17.16;49.48;101233.84;5112564;27;45276;-71
2023/10/14 12:01:09;;;;;;;;;5.75;1.25;;;;;17.31;49.56;101253.44;5105257;27;45287;-71
2023/10/14 12:03:34;;;;;;;;;4.75;2.50;;;;;17.32;49.37;101236.63;5100492;27;45354;-71
2023/10/14 12:06:00;;;;;;;;;2.25;1.75;;;;;17.47;49.51;101245.63;5101751;27;45264;-71
2023/10/14 12:08:30;;;;;;;;;3.50;2.00;;;;;17.50;48.89;101242.84;5101358;27;45303;-71
2023/10/14 12:10:59;;;;;;;;;4.75;2.75;;;;;17.51;49.13;101244.56;5103835;27;47022;-71
2023/10/14 12:13:25;;;;;;;;;4.50;3.00;;;;;17.58;49.55;101243.34;5121412;27;45744;-71